createdAt,value
2022-08-30T07:53:01.995Z,100923.00
2022-08-30T07:55:32.289Z,100923.00
2022-08-30T08:00:34.643Z,100930.00
2022-08-30T08:03:08.494Z,100924.00
2022-08-30T08:05:42.465Z,100933.00
2022-08-30T08:08:11.996Z,100935.00
2022-08-30T08:10:43.894Z,100935.00
2022-08-30T08:13:13.093Z,100942.00
2022-08-30T08:15:42.611Z,100948.00
2022-08-30T08:18:11.459Z,100946.00
2022-08-30T08:20:41.173Z,100956.00
2022-08-30T08:23:10.316Z,100960.00
2022-08-30T08:25:43.660Z,100959.00
2022-08-30T08:28:12.231Z,100969.00
2022-08-30T08:30:44.039Z,100973.00
2022-08-30T08:33:15.080Z,100974.00
2022-08-30T08:35:44.064Z,100965.00
2022-08-30T08:38:13.044Z,100967.00
2022-08-30T08:41:00.922Z,100957.00
2022-08-30T08:43:31.301Z,100958.00
2022-08-30T08:46:07.554Z,100961.00
2022-08-30T08:48:59.965Z,100967.00
2022-08-30T08:51:52.696Z,100970.00
2022-08-30T08:54:32.216Z,100968.00
2022-08-30T08:57:02.924Z,100952.00
2022-08-30T08:59:31.950Z,100956.00
2022-08-30T09:02:10.008Z,100953.00
2022-08-30T09:04:41.228Z,100950.00
2022-08-30T09:07:23.107Z,100943.00
2022-08-30T09:09:52.224Z,100929.00
2022-08-30T09:12:22.609Z,100943.00
2022-08-30T09:14:59.001Z,100939.00
2022-08-30T09:17:28.110Z,100942.00
2022-08-30T09:20:02.630Z,100933.00
2022-08-30T09:22:37.925Z,100932.00
2022-08-30T09:25:11.819Z,100939.00
2022-08-30T09:27:45.040Z,100944.00
2022-08-30T09:30:20.694Z,100925.00
2022-08-30T09:32:54.728Z,100963.00
2022-08-30T09:35:27.656Z,100950.00
2022-08-30T09:38:00.127Z,100962.00
2022-08-30T09:40:38.357Z,100962.00
2022-08-30T09:43:20.716Z,100953.00
2022-08-30T09:46:08.270Z,100954.00
2022-08-30T09:48:40.814Z,100963.00
2022-08-30T09:51:40.246Z,100957.00
2022-08-30T09:54:22.915Z,100963.00
2022-08-30T09:57:12.464Z,100953.00
2022-08-30T09:59:59.507Z,100960.00
2022-08-30T10:02:58.795Z,100957.00
2022-08-30T10:05:43.812Z,100962.00
2022-08-30T10:08:22.338Z,100972.00
2022-08-30T10:11:01.007Z,100962.00
2022-08-30T10:14:05.300Z,100957.00
2022-08-30T10:16:51.282Z,100949.00
2022-08-30T10:19:37.637Z,100952.00
2022-08-30T10:22:12.387Z,100945.00
2022-08-30T10:24:49.446Z,100957.00
2022-08-30T10:27:27.341Z,100944.00
2022-08-30T10:30:06.032Z,100943.00
2022-08-30T10:32:48.131Z,100947.00
2022-08-30T10:35:21.867Z,100943.00
2022-08-30T10:37:57.379Z,100941.00
2022-08-30T10:40:50.136Z,100926.00
2022-08-30T10:43:29.016Z,100940.00
2022-08-30T10:46:04.892Z,100941.00
2022-08-30T10:48:44.448Z,100929.00
2022-08-30T10:51:25.762Z,100934.00
2022-08-30T10:54:00.274Z,100921.00
2022-08-30T10:56:31.033Z,100929.00
2022-08-30T10:59:01.304Z,100931.00
2022-08-30T11:01:56.308Z,100922.00
2022-08-30T11:05:10.981Z,100911.00
2022-08-30T11:07:52.181Z,100922.00
2022-08-30T11:10:49.551Z,100917.00
2022-08-30T11:13:24.399Z,100920.00
2022-08-30T11:16:00.788Z,100917.00
2022-08-30T11:18:33.845Z,100923.00
2022-08-30T11:21:25.789Z,100916.00
2022-08-30T11:24:11.298Z,100919.00
2022-08-30T11:27:04.228Z,100912.00
2022-08-30T11:29:42.488Z,100924.00
2022-08-30T11:32:42.075Z,100913.00
2022-08-30T11:35:12.308Z,100902.00
2022-08-30T11:37:45.054Z,100907.00
2022-08-30T11:40:51.808Z,100909.00
2022-08-30T11:43:56.256Z,100906.00
2022-08-30T11:46:40.845Z,100905.00
2022-08-30T11:50:08.493Z,100907.00
2022-08-30T11:52:59.325Z,100908.00
2022-08-30T11:55:53.454Z,100898.00
2022-08-30T11:58:37.671Z,100912.00
2022-08-30T12:01:50.838Z,100902.00
2022-08-30T12:04:37.656Z,100897.00
2022-08-30T12:07:08.921Z,100906.00
2022-08-30T12:10:08.471Z,100886.00
2022-08-30T12:12:55.826Z,100909.00
2022-08-30T12:15:58.095Z,100899.00
2022-08-30T12:18:33.759Z,100898.00
2022-08-30T12:21:24.008Z,100889.00
2022-08-30T12:24:03.636Z,100884.00
2022-08-30T12:26:38.496Z,100893.00
2022-08-30T12:29:19.572Z,100890.00
2022-08-30T12:31:54.192Z,100875.00
2022-08-30T12:34:31.336Z,100889.00
2022-08-30T12:37:04.796Z,100865.00
2022-08-30T12:39:37.724Z,100880.00
2022-08-30T12:42:21.052Z,100882.00
2022-08-30T12:44:53.258Z,100856.00
2022-08-30T12:47:27.179Z,100884.00
2022-08-30T12:50:04.057Z,100872.00
2022-08-30T12:52:40.934Z,100867.00
2022-08-30T12:55:17.704Z,100867.00
2022-08-30T12:58:02.486Z,100868.00
2022-08-30T13:00:34.391Z,100865.00
2022-08-30T13:03:31.040Z,100875.00
2022-08-30T13:06:00.108Z,100895.00
2022-08-30T13:08:38.413Z,100895.00
2022-08-30T13:11:11.074Z,100900.00
2022-08-30T13:13:44.740Z,100902.00
2022-08-30T13:16:29.268Z,100920.00
2022-08-30T13:19:29.000Z,100945.00
2022-08-30T13:22:00.103Z,100949.00
2022-08-30T13:24:31.016Z,100975.00
2022-08-30T13:27:09.750Z,100974.00
2022-08-30T13:29:40.604Z,100985.00
2022-08-30T13:32:11.532Z,100991.00
2022-08-30T13:34:40.642Z,100987.00
2022-08-30T13:40:04.903Z,100976.00
2022-08-30T13:42:33.907Z,100972.00
2022-08-30T13:45:04.409Z,100970.00
2022-08-30T13:47:34.508Z,100969.00
2022-08-30T13:50:08.704Z,100954.00
2022-08-30T13:52:38.800Z,100948.00
2022-08-30T13:55:09.391Z,100952.00
2022-08-30T13:57:56.605Z,100944.00
2022-08-30T14:00:29.240Z,100938.00
2022-08-30T14:03:00.056Z,100920.00
2022-08-30T14:05:50.925Z,100920.00
2022-08-30T14:11:20.866Z,100923.00
2022-08-30T14:16:46.624Z,100917.00
2022-08-30T14:19:19.046Z,100920.00
2022-08-30T14:21:49.394Z,100914.00
2022-08-30T14:24:21.576Z,100917.00
2022-08-30T14:27:02.006Z,100901.00
2022-08-30T14:29:31.686Z,100901.00
2022-08-30T14:32:02.252Z,100897.00
2022-08-30T14:34:35.095Z,100890.00
2022-08-30T14:37:23.606Z,100891.00
2022-08-30T14:39:55.064Z,100891.00
2022-08-30T14:42:25.122Z,100888.00
2022-08-30T14:44:56.544Z,100882.00
2022-08-30T14:47:32.326Z,100883.00
2022-08-30T14:50:01.967Z,100880.00
2022-08-30T14:52:33.599Z,100870.00
2022-08-30T14:55:08.970Z,100879.00
2022-08-30T14:57:40.584Z,100873.00
2022-08-30T15:00:14.497Z,100879.00
2022-08-30T15:02:44.856Z,100873.00
2022-08-30T15:05:14.086Z,100871.00
2022-08-30T15:07:43.980Z,100864.00
2022-08-30T15:10:14.911Z,100869.00
2022-08-30T15:12:43.677Z,100866.00
2022-08-30T15:15:21.855Z,100855.00
2022-08-30T15:17:52.055Z,100856.00
2022-08-30T15:20:21.227Z,100856.00
2022-08-30T15:22:50.195Z,100858.00
2022-08-30T15:25:21.350Z,100867.00
2022-08-30T15:27:50.151Z,100854.00
2022-08-30T15:30:21.352Z,100849.00
2022-08-30T15:32:51.668Z,100856.00
2022-08-30T15:35:20.527Z,100852.00
2022-08-30T15:37:51.674Z,100864.00
2022-08-30T15:40:20.765Z,100860.00
2022-08-30T15:42:50.252Z,100856.00
2022-08-30T15:45:20.547Z,100858.00
2022-08-30T15:47:51.567Z,100850.00
2022-08-30T15:50:23.823Z,100849.00
2022-08-30T15:52:53.715Z,100849.00
2022-08-30T15:55:22.928Z,100850.00
2022-08-30T15:57:51.857Z,100850.00
2022-08-30T16:00:24.101Z,100854.00
2022-08-30T16:02:53.455Z,100838.00
2022-08-30T16:05:24.316Z,100854.00
2022-08-30T16:07:54.040Z,100859.00
2022-08-30T16:10:23.149Z,100844.00
2022-08-30T16:12:52.078Z,100849.00
2022-08-30T16:15:21.389Z,100850.00
2022-08-30T16:17:50.333Z,100858.00
2022-08-30T16:20:19.325Z,100866.00
2022-08-30T16:22:49.661Z,100851.00
2022-08-30T16:25:19.006Z,100860.00
2022-08-30T16:27:49.276Z,100858.00
2022-08-30T16:30:18.246Z,100861.00
2022-08-30T16:32:49.456Z,100862.00
2022-08-30T16:35:18.404Z,100859.00
2022-08-30T16:37:48.527Z,100861.00
2022-08-30T16:40:18.220Z,100863.00
2022-08-30T16:42:46.933Z,100858.00
2022-08-30T16:45:16.169Z,100872.00
2022-08-30T16:47:44.834Z,100860.00
2022-08-30T16:50:16.748Z,100862.00
2022-08-30T16:52:48.309Z,100858.00
2022-08-30T16:55:17.705Z,100863.00
2022-08-30T16:57:46.632Z,100866.00
2022-08-30T17:00:17.079Z,100863.00
2022-08-30T17:05:36.158Z,100870.00
2022-08-30T17:08:06.578Z,100868.00
2022-08-30T17:10:35.302Z,100865.00
2022-08-30T17:13:05.319Z,100868.00
2022-08-30T17:15:34.780Z,100861.00
2022-08-30T17:18:04.629Z,100853.00
2022-08-30T17:20:35.178Z,100845.00
2022-08-30T17:23:06.711Z,100864.00
2022-08-30T17:25:35.663Z,100851.00
2022-08-30T17:28:05.158Z,100850.00
2022-08-30T17:30:35.035Z,100846.00
2022-08-30T17:33:05.055Z,100849.00
2022-08-30T17:35:34.309Z,100836.00
2022-08-30T17:38:03.397Z,100838.00
2022-08-30T17:40:35.201Z,100822.00
2022-08-30T17:43:04.175Z,100834.00
2022-08-30T17:45:33.511Z,100833.00
2022-08-30T17:48:03.829Z,100827.00
2022-08-30T17:50:33.463Z,100829.00
2022-08-30T17:53:02.267Z,100829.00
2022-08-30T17:55:31.416Z,100829.00
2022-08-30T17:58:02.262Z,100831.00
2022-08-30T18:00:31.460Z,100823.00
2022-08-30T18:03:00.857Z,100825.00
2022-08-30T18:05:30.475Z,100815.00
2022-08-30T18:08:01.673Z,100827.00
2022-08-30T18:13:22.698Z,100817.00
2022-08-30T18:15:53.999Z,100832.00
2022-08-30T18:18:23.598Z,100828.00
2022-08-30T18:20:53.402Z,100832.00
2022-08-30T18:23:24.228Z,100831.00
2022-08-30T18:25:59.355Z,100821.00
2022-08-30T18:28:36.969Z,100817.00
2022-08-30T18:31:21.684Z,100816.00
2022-08-30T18:33:57.206Z,100820.00
2022-08-30T18:36:38.024Z,100821.00
2022-08-30T18:39:09.857Z,100814.00
2022-08-30T18:41:43.199Z,100800.00
2022-08-30T18:44:27.162Z,100797.00
2022-08-30T18:47:00.431Z,100802.00
2022-08-30T18:49:32.575Z,100798.00
2022-08-30T18:52:02.868Z,100798.00
2022-08-30T18:54:32.605Z,100795.00
2022-08-30T18:57:01.924Z,100796.00
2022-08-30T18:59:36.633Z,100802.00
2022-08-30T19:02:11.027Z,100796.00
2022-08-30T19:04:43.815Z,100787.00
2022-08-30T19:07:17.113Z,100800.00
2022-08-30T19:09:48.357Z,100775.00
2022-08-30T19:12:17.785Z,100795.00
2022-08-30T19:14:48.543Z,100786.00
2022-08-30T19:17:17.784Z,100782.00
2022-08-30T19:19:49.191Z,100796.00
2022-08-30T19:22:27.462Z,100797.00
2022-08-30T19:24:58.245Z,100793.00
2022-08-30T19:27:37.679Z,100804.00
2022-08-30T19:30:20.555Z,100785.00
2022-08-30T19:32:55.507Z,100791.00
2022-08-30T19:35:25.094Z,100789.00
2022-08-30T19:37:54.673Z,100791.00
2022-08-30T19:40:26.390Z,100800.00
2022-08-30T19:42:55.969Z,100806.00
2022-08-30T19:45:27.149Z,100790.00
2022-08-30T19:47:58.075Z,100789.00
2022-08-30T19:50:27.971Z,100801.00
2022-08-30T19:52:57.995Z,100796.00
2022-08-30T19:55:31.270Z,100797.00
2022-08-30T19:58:00.993Z,100797.00
2022-08-30T20:00:31.930Z,100789.00
2022-08-30T20:03:02.184Z,100788.00
2022-08-30T20:05:31.927Z,100789.00
2022-08-30T20:08:01.439Z,100789.00
2022-08-30T20:10:30.719Z,100784.00
2022-08-30T20:13:00.366Z,100787.00
2022-08-30T20:15:31.043Z,100770.00
2022-08-30T20:18:05.608Z,100775.00
2022-08-30T20:20:49.648Z,100775.00
2022-08-30T20:24:23.329Z,100857.00
2022-08-30T20:24:26.632Z,100828.00
2022-08-30T20:26:08.279Z,100778.00
2022-08-30T20:28:37.295Z,100778.00
2022-08-30T20:31:09.123Z,100770.00
2022-08-30T20:33:41.133Z,100765.00
2022-08-30T20:36:11.726Z,100764.00
2022-08-30T20:38:41.531Z,100757.00
2022-08-30T20:41:13.371Z,100755.00
2022-08-30T20:43:42.174Z,100756.00
2022-08-30T20:46:15.940Z,100763.00
2022-08-30T20:48:45.625Z,100755.00
2022-08-30T20:51:20.014Z,100755.00
2022-08-30T20:53:48.837Z,100752.00
2022-08-30T20:56:21.753Z,100747.00
2022-08-30T20:58:51.870Z,100747.00
2022-08-30T21:01:23.625Z,100749.00
2022-08-30T21:03:52.515Z,100739.00
2022-08-30T21:06:21.879Z,100754.00
2022-08-30T21:08:50.717Z,100736.00
2022-08-30T21:11:21.015Z,100733.00
2022-08-30T21:13:49.699Z,100731.00
2022-08-30T21:16:22.131Z,100727.00
2022-08-30T21:18:52.516Z,100746.00
2022-08-30T21:21:25.734Z,100719.00
2022-08-30T21:23:58.736Z,100721.00
2022-08-30T21:26:27.840Z,100729.00
2022-08-30T21:28:57.644Z,100728.00
2022-08-30T21:31:29.336Z,100730.00
2022-08-30T21:33:59.636Z,100712.00
2022-08-30T21:36:46.315Z,100719.00
2022-08-30T21:39:23.289Z,100717.00
2022-08-30T21:41:57.078Z,100713.00
2022-08-30T21:44:28.503Z,100708.00
2022-08-30T21:46:57.124Z,100703.00
2022-08-30T21:49:27.386Z,100705.00
2022-08-30T21:51:56.877Z,100706.00
2022-08-30T21:54:28.349Z,100694.00
2022-08-30T21:57:04.948Z,100704.00
2022-08-30T21:59:33.962Z,100703.00
2022-08-30T22:02:02.863Z,100690.00
2022-08-30T22:04:32.907Z,100696.00
2022-08-30T22:07:03.263Z,100700.00
2022-08-30T22:09:31.994Z,100692.00
2022-08-30T22:12:00.749Z,100691.00
2022-08-30T22:14:29.487Z,100687.00
2022-08-30T22:16:58.240Z,100673.00
2022-08-30T22:19:28.345Z,100679.00
2022-08-30T22:22:01.964Z,100677.00
2022-08-30T22:24:32.511Z,100700.00
2022-08-30T22:27:03.513Z,100689.00
2022-08-30T22:29:32.332Z,100682.00
2022-08-30T22:32:01.564Z,100678.00
2022-08-30T22:34:31.970Z,100678.00
2022-08-30T22:37:02.405Z,100672.00
2022-08-30T22:39:31.994Z,100662.00
2022-08-30T22:42:00.907Z,100685.00
2022-08-30T22:44:29.872Z,100661.00
2022-08-30T22:46:58.480Z,100671.00
2022-08-30T22:49:27.183Z,100669.00
2022-08-30T22:51:55.844Z,100666.00
2022-08-30T22:54:25.972Z,100675.00
2022-08-30T22:56:54.663Z,100689.00
2022-08-30T22:59:31.552Z,100675.00
2022-08-30T23:02:01.601Z,100662.00
2022-08-30T23:04:30.625Z,100668.00
2022-08-30T23:06:59.330Z,100666.00
2022-08-30T23:09:29.591Z,100664.00
2022-08-30T23:11:58.373Z,100676.00
2022-08-30T23:14:27.115Z,100661.00
2022-08-30T23:16:55.770Z,100658.00
2022-08-30T23:19:26.763Z,100664.00
2022-08-30T23:21:55.903Z,100667.00
2022-08-30T23:24:41.863Z,100662.00
2022-08-30T23:27:33.680Z,100666.00
2022-08-30T23:30:19.674Z,100660.00
2022-08-30T23:33:06.161Z,100659.00
2022-08-30T23:35:52.212Z,100655.00
2022-08-30T23:38:38.195Z,100649.00
2022-08-30T23:41:28.198Z,100646.00
2022-08-30T23:44:22.330Z,100654.00
2022-08-30T23:47:08.377Z,100643.00
2022-08-30T23:49:58.232Z,100653.00
2022-08-30T23:52:44.217Z,100646.00
2022-08-30T23:55:30.244Z,100650.00
2022-08-30T23:58:16.272Z,100663.00
